createdAt,value
2022-08-10T00:02:56.625Z,94.20
2022-08-10T00:05:53.133Z,93.90
2022-08-10T00:08:42.528Z,94.40
2022-08-10T00:25:46.327Z,94.20
2022-08-10T00:28:34.902Z,94.30
2022-08-10T00:37:01.010Z,94.30
2022-08-10T00:45:26.248Z,94.70
2022-08-10T00:48:14.450Z,94.40
2022-08-10T00:51:02.765Z,95.00
2022-08-10T00:57:17.110Z,94.90
2022-08-10T00:59:58.575Z,94.80
2022-08-10T01:02:48.418Z,94.90
2022-08-10T01:06:00.565Z,94.90
2022-08-10T01:09:01.785Z,94.80
2022-08-10T01:12:38.065Z,95.00
2022-08-10T01:15:32.677Z,95.10
2022-08-10T01:18:37.642Z,95.10
2022-08-10T01:21:53.227Z,95.20
2022-08-10T01:24:53.515Z,95.20
2022-08-10T01:28:21.454Z,95.50
2022-08-10T01:31:16.825Z,96.10
2022-08-10T01:34:19.387Z,95.90
2022-08-10T01:37:14.993Z,96.20
2022-08-10T01:40:07.276Z,96.70
2022-08-10T01:43:07.974Z,96.70
2022-08-10T01:46:00.021Z,97.00
2022-08-10T01:48:54.697Z,97.20
2022-08-10T01:51:56.934Z,97.10
2022-08-10T01:54:51.287Z,97.70
2022-08-10T01:57:43.604Z,97.90
2022-08-10T02:00:36.860Z,97.70
2022-08-10T02:03:26.237Z,97.80
2022-08-10T02:06:16.397Z,98.40
2022-08-10T02:09:07.826Z,98.40
2022-08-10T02:12:07.066Z,99.10
2022-08-10T02:19:51.813Z,99.10
2022-08-10T02:22:41.393Z,99.30
2022-08-10T02:25:42.486Z,99.80
2022-08-10T02:28:34.481Z,99.80
2022-08-10T02:31:25.153Z,99.90
2022-08-10T02:34:16.513Z,99.90
2022-08-10T02:37:10.786Z,99.90
2022-08-10T02:39:59.535Z,99.90
2022-08-10T02:45:18.780Z,99.90
2022-08-10T02:46:18.249Z,99.90
2022-08-10T02:49:21.710Z,99.90
2022-08-10T02:52:22.137Z,99.90
2022-08-10T02:55:41.655Z,99.90
2022-08-10T02:58:41.019Z,99.90
2022-08-10T03:01:34.353Z,99.90
2022-08-10T03:04:55.542Z,99.90
2022-08-10T03:07:53.547Z,99.90
2022-08-10T03:10:44.294Z,99.90
2022-08-10T03:13:33.985Z,99.90
2022-08-10T03:16:23.534Z,99.90
2022-08-10T03:22:21.356Z,99.90
2022-08-10T03:25:12.333Z,99.90
2022-08-10T03:28:01.441Z,99.90
2022-08-10T03:30:50.376Z,99.90
2022-08-10T03:33:41.554Z,99.90
2022-08-10T03:36:42.691Z,99.90
2022-08-10T03:42:24.478Z,99.90
2022-08-10T03:45:13.339Z,99.90
2022-08-10T03:48:04.322Z,99.90
2022-08-10T03:50:52.975Z,99.90
2022-08-10T03:59:39.233Z,99.90
2022-08-10T04:02:46.582Z,99.90
2022-08-10T04:05:38.594Z,99.90
2022-08-10T04:14:35.591Z,99.90
2022-08-10T04:23:27.656Z,99.90
2022-08-10T04:26:17.006Z,99.90
2022-08-10T04:34:44.980Z,99.90
2022-08-10T04:37:35.005Z,99.90
2022-08-10T04:40:29.332Z,99.90
2022-08-10T04:43:19.341Z,99.90
2022-08-10T04:55:13.581Z,99.90
2022-08-10T04:58:01.731Z,99.90
2022-08-10T05:00:50.235Z,99.90
2022-08-10T05:12:43.890Z,99.90
2022-08-10T05:23:57.447Z,99.90
2022-08-10T05:27:00.297Z,99.90
2022-08-10T05:30:01.504Z,99.90
2022-08-10T05:32:58.951Z,99.90
2022-08-10T05:38:47.355Z,99.90
2022-08-10T05:41:41.365Z,99.90
2022-08-10T05:44:34.907Z,99.90
2022-08-10T05:47:23.704Z,99.90
2022-08-10T05:50:14.075Z,99.90
2022-08-10T05:53:59.233Z,99.90
2022-08-10T05:56:11.420Z,99.90
2022-08-10T05:58:59.559Z,99.90
2022-08-10T06:02:33.899Z,99.90
2022-08-10T06:05:30.753Z,99.90
2022-08-10T06:08:26.884Z,99.90
2022-08-10T06:12:27.009Z,99.90
2022-08-10T06:14:43.668Z,99.90
2022-08-10T06:17:41.639Z,99.90
2022-08-10T06:20:35.919Z,99.90
2022-08-10T06:23:28.635Z,99.90
2022-08-10T06:26:21.102Z,99.90
2022-08-10T06:29:15.349Z,99.90
2022-08-10T06:32:05.522Z,99.90
2022-08-10T06:35:11.347Z,99.90
2022-08-10T06:38:03.447Z,99.90
2022-08-10T06:40:57.455Z,99.90
2022-08-10T06:43:57.760Z,99.90
2022-08-10T06:46:51.277Z,99.90
2022-08-10T06:49:39.591Z,99.90
2022-08-10T06:52:31.032Z,99.90
2022-08-10T06:55:39.821Z,99.90
2022-08-10T06:58:36.414Z,99.90
2022-08-10T07:01:34.695Z,99.90
2022-08-10T07:04:32.291Z,99.90
2022-08-10T07:07:27.852Z,99.90
2022-08-10T07:10:20.405Z,99.90
2022-08-10T07:13:10.119Z,99.90
2022-08-10T07:16:00.796Z,99.90
2022-08-10T07:18:49.698Z,99.90
2022-08-10T07:21:44.313Z,99.90
2022-08-10T07:24:34.765Z,99.90
2022-08-10T07:27:25.188Z,99.90
2022-08-10T07:30:14.192Z,99.90
2022-08-10T07:33:04.019Z,99.90
2022-08-10T07:38:41.438Z,99.90
2022-08-10T07:41:32.069Z,99.90
2022-08-10T07:44:21.444Z,99.90
2022-08-10T07:47:53.906Z,99.90
2022-08-10T07:50:35.269Z,99.90
2022-08-10T07:53:28.560Z,99.90
2022-08-10T07:56:45.449Z,99.90
2022-08-10T07:59:38.621Z,99.90
2022-08-10T08:02:34.070Z,99.90
2022-08-10T08:05:59.232Z,99.90
2022-08-10T08:08:40.028Z,99.90
2022-08-10T08:11:29.634Z,99.90
2022-08-10T08:14:22.011Z,99.90
2022-08-10T08:17:12.493Z,98.60
2022-08-10T08:20:04.794Z,98.30
2022-08-10T08:26:24.670Z,98.10
2022-08-10T08:29:19.573Z,98.00
2022-08-10T08:32:08.740Z,97.30
2022-08-10T08:35:08.263Z,96.50
2022-08-10T08:38:31.370Z,96.20
2022-08-10T08:41:47.592Z,95.90
2022-08-10T08:44:59.788Z,94.60
2022-08-10T08:48:24.656Z,94.80
2022-08-10T08:52:09.647Z,94.10
2022-08-10T08:54:59.866Z,93.90
2022-08-10T08:58:06.030Z,91.60
2022-08-10T09:01:38.320Z,89.20
2022-08-10T09:05:06.828Z,90.00
2022-08-10T09:08:41.976Z,88.70
2022-08-10T09:12:00.317Z,88.10
2022-08-10T09:15:06.188Z,86.50
2022-08-10T09:18:06.211Z,85.00
2022-08-10T09:21:12.248Z,85.70
2022-08-10T09:24:32.160Z,84.00
2022-08-10T09:27:45.586Z,82.60
2022-08-10T09:36:21.067Z,81.10
2022-08-10T09:38:03.208Z,79.80
2022-08-10T09:41:32.760Z,80.40
2022-08-10T09:45:07.083Z,80.50
2022-08-10T09:48:39.695Z,80.10
2022-08-10T09:52:27.867Z,80.20
2022-08-10T09:56:17.822Z,78.20
2022-08-10T09:59:26.882Z,77.80
2022-08-10T10:06:04.432Z,76.30
2022-08-10T10:09:10.107Z,77.00
2022-08-10T10:12:36.515Z,77.50
2022-08-10T10:16:02.037Z,75.70
2022-08-10T10:19:04.907Z,76.50
2022-08-10T10:22:11.808Z,72.20
2022-08-10T10:25:25.487Z,74.60
2022-08-10T10:32:36.911Z,71.60
2022-08-10T10:35:40.595Z,69.90
2022-08-10T10:38:38.246Z,71.20
2022-08-10T10:42:14.615Z,69.20
2022-08-10T10:45:51.009Z,70.80
2022-08-10T10:48:54.656Z,69.30
2022-08-10T10:51:53.786Z,70.10
2022-08-10T10:55:07.324Z,68.00
2022-08-10T10:58:22.461Z,66.10
2022-08-10T11:01:22.182Z,65.40
2022-08-10T11:05:02.419Z,66.40
2022-08-10T11:08:01.172Z,65.40
2022-08-10T11:12:00.044Z,64.90
2022-08-10T11:14:38.498Z,65.10
2022-08-10T11:17:34.726Z,62.20
2022-08-10T11:20:49.920Z,62.90
2022-08-10T11:24:42.483Z,63.20
2022-08-10T11:27:21.909Z,62.80
2022-08-10T11:30:18.964Z,61.30
2022-08-10T11:36:35.555Z,60.50
2022-08-10T11:40:13.190Z,61.80
2022-08-10T11:43:22.723Z,61.20
2022-08-10T11:46:33.195Z,61.50
2022-08-10T11:49:46.888Z,59.70
2022-08-10T11:52:49.442Z,62.00
2022-08-10T11:55:37.631Z,59.30
2022-08-10T11:58:50.932Z,60.70
2022-08-10T12:04:29.212Z,58.70
2022-08-10T12:10:06.143Z,59.00
2022-08-10T12:10:28.479Z,56.70
2022-08-10T12:14:19.631Z,58.20
2022-08-10T12:17:15.375Z,54.90
2022-08-10T12:20:37.842Z,57.10
2022-08-10T12:24:03.314Z,56.80
2022-08-10T12:27:03.721Z,58.10
2022-08-10T12:30:04.779Z,57.10
2022-08-10T12:36:18.636Z,55.30
2022-08-10T12:39:17.970Z,55.80
2022-08-10T12:42:38.643Z,56.80
2022-08-10T12:46:01.925Z,56.30
2022-08-10T12:52:07.656Z,57.60
2022-08-10T12:54:59.674Z,55.50
2022-08-10T12:57:56.727Z,55.90
2022-08-10T13:01:12.749Z,54.60
2022-08-10T13:04:22.915Z,55.00
2022-08-10T13:13:08.780Z,54.10
2022-08-10T13:15:58.493Z,56.90
2022-08-10T13:18:47.331Z,54.00
2022-08-10T13:21:38.708Z,54.10
2022-08-10T13:24:36.877Z,56.00
2022-08-10T13:28:00.947Z,55.40
2022-08-10T13:30:40.444Z,55.90
2022-08-10T13:36:40.649Z,51.50
2022-08-10T13:39:58.903Z,53.90
2022-08-10T13:42:50.097Z,54.60
2022-08-10T13:45:47.700Z,54.50
2022-08-10T13:48:40.000Z,56.20
2022-08-10T13:51:57.540Z,50.70
2022-08-10T13:54:42.914Z,52.90
2022-08-10T13:57:35.479Z,52.00
2022-08-10T14:00:41.493Z,51.50
2022-08-10T14:03:37.627Z,52.00
2022-08-10T14:06:29.828Z,51.80
2022-08-10T14:09:24.869Z,52.30
2022-08-10T14:12:14.120Z,52.10
2022-08-10T14:15:07.105Z,52.40
2022-08-10T14:17:58.327Z,51.60
2022-08-10T14:23:41.239Z,49.20
2022-08-10T14:26:32.056Z,49.40
2022-08-10T14:29:23.825Z,50.00
2022-08-10T14:32:16.207Z,51.60
2022-08-10T14:36:20.492Z,48.90
2022-08-10T14:38:21.263Z,49.00
2022-08-10T14:42:02.942Z,50.50
2022-08-10T14:45:10.937Z,49.50
2022-08-10T14:48:23.585Z,53.10
2022-08-10T14:51:26.581Z,48.20
2022-08-10T14:54:17.455Z,48.70
2022-08-10T14:57:11.494Z,49.30
2022-08-10T15:03:11.217Z,49.50
2022-08-10T15:06:36.985Z,49.30
2022-08-10T15:09:59.851Z,49.00
2022-08-10T15:12:50.941Z,50.00
2022-08-10T15:16:02.240Z,49.10
2022-08-10T15:18:57.964Z,50.60
2022-08-10T15:25:00.442Z,50.60
2022-08-10T15:27:55.338Z,51.00
2022-08-10T15:30:48.080Z,49.90
2022-08-10T15:34:16.046Z,53.10
2022-08-10T15:37:39.450Z,50.50
2022-08-10T15:43:26.592Z,51.00
2022-08-10T15:46:31.860Z,50.60
2022-08-10T15:50:05.318Z,49.50
2022-08-10T15:53:00.559Z,48.80
2022-08-10T15:55:55.549Z,49.60
2022-08-10T15:58:55.994Z,49.60
2022-08-10T16:02:04.188Z,49.60
2022-08-10T16:05:14.233Z,48.40
2022-08-10T16:08:09.281Z,49.70
2022-08-10T16:11:04.183Z,49.20
2022-08-10T16:14:01.247Z,50.10
2022-08-10T16:16:57.585Z,49.70
2022-08-10T16:19:53.166Z,48.60
2022-08-10T16:22:41.660Z,48.70
2022-08-10T16:25:51.300Z,48.10
2022-08-10T16:29:08.439Z,49.10
2022-08-10T16:31:59.813Z,48.10
2022-08-10T16:34:51.065Z,48.00
2022-08-10T16:37:56.585Z,51.20
2022-08-10T16:40:49.677Z,48.70
2022-08-10T16:43:38.798Z,49.20
2022-08-10T16:46:27.773Z,49.00
2022-08-10T16:49:18.147Z,48.70
2022-08-10T16:52:08.013Z,49.00
2022-08-10T16:55:17.028Z,50.70
2022-08-10T16:58:28.130Z,50.20
2022-08-10T17:01:23.857Z,52.50
2022-08-10T17:04:14.509Z,50.40
2022-08-10T17:07:14.284Z,50.20
2022-08-10T17:10:08.073Z,49.20
2022-08-10T17:12:58.522Z,51.20
2022-08-10T17:15:58.109Z,51.00
2022-08-10T17:18:48.274Z,50.90
2022-08-10T17:21:51.484Z,53.20
2022-08-10T17:25:08.921Z,51.10
2022-08-10T17:28:05.030Z,51.20
2022-08-10T17:31:39.800Z,52.90
2022-08-10T17:34:23.742Z,51.00
2022-08-10T17:37:22.349Z,52.60
2022-08-10T17:40:19.342Z,52.60
2022-08-10T17:43:10.019Z,52.30
2022-08-10T17:46:00.197Z,50.90
2022-08-10T17:48:48.776Z,52.00
2022-08-10T17:51:43.539Z,52.70
2022-08-10T17:57:27.012Z,53.50
2022-08-10T18:03:05.420Z,55.30
2022-08-10T18:06:01.891Z,54.90
2022-08-10T18:09:01.201Z,55.40
2022-08-10T18:12:03.658Z,56.10
2022-08-10T18:15:05.256Z,56.90
2022-08-10T18:18:01.744Z,57.50
2022-08-10T18:21:12.960Z,58.10
2022-08-10T18:24:07.751Z,58.10
2022-08-10T18:26:57.587Z,58.50
2022-08-10T18:29:55.222Z,57.40
2022-08-10T18:32:56.417Z,56.40
2022-08-10T18:35:46.378Z,58.60
2022-08-10T18:38:38.434Z,58.60
2022-08-10T18:41:37.388Z,59.90
2022-08-10T18:44:36.102Z,58.60
2022-08-10T18:47:41.626Z,60.20
2022-08-10T18:50:54.400Z,60.80
2022-08-10T18:53:52.086Z,59.60
2022-08-10T18:56:57.998Z,61.60
2022-08-10T19:00:10.379Z,60.00
2022-08-10T19:03:31.582Z,61.80
2022-08-10T19:06:41.335Z,62.10
2022-08-10T19:09:55.105Z,62.80
2022-08-10T19:12:58.847Z,62.40
2022-08-10T19:16:15.007Z,63.10
2022-08-10T19:19:41.238Z,62.90
2022-08-10T19:23:05.741Z,64.20
2022-08-10T19:26:40.938Z,63.50
2022-08-10T19:30:11.891Z,64.80
2022-08-10T19:33:25.438Z,64.30
2022-08-10T19:36:38.379Z,66.10
2022-08-10T19:39:53.467Z,65.20
2022-08-10T19:42:59.477Z,65.00
2022-08-10T19:46:02.423Z,64.20
2022-08-10T19:49:31.149Z,65.20
2022-08-10T19:52:41.376Z,66.80
2022-08-10T19:55:47.120Z,67.10
2022-08-10T19:58:54.003Z,66.70
2022-08-10T20:01:54.511Z,67.50
2022-08-10T20:05:10.151Z,66.70
2022-08-10T20:08:19.781Z,66.60
2022-08-10T20:11:44.705Z,67.80
2022-08-10T20:14:42.839Z,67.40
2022-08-10T20:21:25.661Z,66.70
2022-08-10T20:24:45.373Z,71.40
2022-08-10T20:28:05.794Z,71.40
2022-08-10T20:31:17.135Z,72.90
2022-08-10T20:34:16.993Z,74.00
2022-08-10T20:37:44.986Z,74.40
2022-08-10T20:40:48.547Z,74.00
2022-08-10T20:44:17.375Z,76.30
2022-08-10T20:47:18.788Z,76.40
2022-08-10T20:50:37.234Z,76.70
2022-08-10T20:53:29.584Z,78.30
2022-08-10T20:56:48.361Z,77.40
2022-08-10T21:00:04.527Z,79.30
2022-08-10T21:03:07.543Z,79.00
2022-08-10T21:06:43.161Z,77.40
2022-08-10T21:09:47.109Z,79.20
2022-08-10T21:13:11.978Z,81.50
2022-08-10T21:16:47.438Z,79.30
2022-08-10T21:19:53.891Z,79.10
2022-08-10T21:22:49.562Z,81.10
2022-08-10T21:25:58.962Z,81.00
2022-08-10T21:29:01.799Z,81.90
2022-08-10T21:32:23.371Z,81.20
2022-08-10T21:38:54.091Z,84.20
2022-08-10T21:42:31.969Z,84.10
2022-08-10T21:49:36.907Z,84.90
2022-08-10T21:53:00.838Z,86.90
2022-08-10T21:56:24.926Z,85.70
2022-08-10T22:00:23.909Z,86.00
2022-08-10T22:03:40.169Z,88.20
2022-08-10T22:06:58.340Z,86.60
2022-08-10T22:10:08.357Z,88.10
2022-08-10T22:13:21.713Z,89.40
2022-08-10T22:17:06.887Z,89.80
2022-08-10T22:20:49.738Z,90.70
2022-08-10T22:24:19.601Z,90.80
2022-08-10T22:27:55.389Z,91.40
2022-08-10T22:31:31.617Z,90.80
2022-08-10T22:35:12.993Z,91.90
2022-08-10T22:40:10.203Z,92.10
2022-08-10T22:43:11.058Z,92.30
2022-08-10T22:46:22.928Z,93.20
2022-08-10T22:49:12.115Z,94.10
2022-08-10T22:52:17.229Z,93.70
2022-08-10T22:55:32.296Z,93.60
2022-08-10T22:58:39.219Z,94.70
2022-08-10T23:01:40.907Z,95.20
2022-08-10T23:04:35.909Z,95.40
2022-08-10T23:07:29.817Z,95.10
2022-08-10T23:10:21.565Z,95.50
2022-08-10T23:13:14.250Z,95.50
2022-08-10T23:16:46.371Z,96.00
2022-08-10T23:20:15.777Z,96.80
2022-08-10T23:23:10.147Z,95.20
2022-08-10T23:26:00.734Z,95.20
2022-08-10T23:28:58.257Z,96.20
2022-08-10T23:32:08.406Z,96.10
2022-08-10T23:36:04.315Z,96.10
2022-08-10T23:38:09.403Z,95.60
2022-08-10T23:41:02.683Z,95.90
2022-08-10T23:44:04.813Z,96.50
2022-08-10T23:46:53.827Z,95.50
2022-08-10T23:49:44.728Z,96.10
2022-08-10T23:52:34.726Z,97.10
2022-08-10T23:55:31.259Z,98.50
2022-08-10T23:58:35.504Z,98.60
